GMMEGMMW

Guest
Details From GMME - SALE
To GMMW - EL AROUI
Flight Number -
Tags generated
Created
Modified
Stats Distance 201 nm / 372 km
Max Altitude 19,700 ft / 6,005 m
Waypoints 3
Social Downloads 0
Likes 0
Share VATSIM

Download

Looking for another format? Having issues loading an existing format? Contact us
Advertisement - Login to hide

Notes

Basic altitude profile: - Ascent Rate: 2500ft/min - Ascent Speed: 250kts - Cruise Altitude: 35000ft - Cruise Speed: 420kts - Descent Rate: 1500ft/min - Descent Speed: 250kts Options: - Use NATs: yes - Use PACOTS: yes - Use low airways: no - Use high airways: no

Route

GMME 3500N0500W GMMW

ID Type Via Altitude Latitude Longitude Leg Dist Tot Dist Heading (true) Name
O GMME APT - 0 ft / 0 m 34.05147˚ -6.75152˚ - 0 nm - SALE
3500N0500W LATLON - 19,700 ft / 6,005 m 35.00000˚ -5.00000˚ 103 nm 103 nm 56° / 57° -
O GMMW APT - 0 ft / 0 m 34.98878˚ -3.02820˚ 97 nm 200 nm 90° / 91° EL AROUI

Altitude Profile

Advertisement - Login to hide

Weather


0- 5 10 15 20 25 30 35+ Temperature / ° C

Clouds and Precipitation
Forecast for 2017-12-16 06:00 UTC. Updated a minute ago

Ground ~20,000 ft ~40,000 ft Winds

GMME

Details ICAO GMME (RBA)
Name SALE
Region Morocco
Timezone Africa/Casablanca (UTC+0.0)
Stats Elevation 276 ft / 84 m (AMSL)
Location 34.051468° -6.751519°
Runways 1
Magnetic Variation 1.550° W

METAR

GMME 160300Z 21010KT 9999 RA FEW010 BKN020 BKN070 15/13 Q1017 NOSIG

Decode

TAF

TAF GMME 151700Z 1518/1624 24014KT 8000 SCT016 BKN080 TEMPO 1518/1609 4000 RA BKN013 BKN016 TEMPO 1500/1606 24017G27KT 3000 SHRA BKN010 SCT020CB BECMG 1610/1612 32010KT

Decode

Departure Runways

ID Width Length Bearing (true) Bearing (mag) Surface Threshold Offset Overrun Length
04 148 ft / 45 m 11,503 ft / 3,506 m 31.24° 32.79° Asphalt 0 ft / 0 m 197 ft / 60 m
22 148 ft / 45 m 11,503 ft / 3,506 m 211.25° 212.80° Asphalt 0 ft / 0 m 197 ft / 60 m

GMMW

Details ICAO GMMW (NDR)
Name EL AROUI
Region Morocco
Timezone Africa/Casablanca (UTC+0.0)
Stats Elevation 574 ft / 175 m (AMSL)
Location 34.988779° -3.028204°
Runways 1
Magnetic Variation 0.476° W

METAR

GMMW 160300Z 27008KT 9999 FEW030 SCT080 15/12 Q1014 NOSIG

Decode

TAF

TAF GMMW 152300Z 1600/1706 19005KT 9999 FEW023 SCT080 TEMPO 1602/1615 5000 -RA BKN013TCU

Decode

Destination Runways

ID Width Length Bearing (true) Bearing (mag) Surface Threshold Offset Overrun Length
08 148 ft / 45 m 9,825 ft / 2,995 m 77.96° 78.44° Asphalt 0 ft / 0 m 0 ft / 0 m
26 148 ft / 45 m 9,825 ft / 2,995 m 257.97° 258.45° Asphalt 0 ft / 0 m 0 ft / 0 m

Popular Alternatives